Decoded Metar for LFOH (LE HAVRE in FRANCE) (IATA:LEH) | Meteo·Mobile Aviation Weather
aviador You're here:

LFOH Decoded Metar

LE HAVRE in FRANCE
Report Time2019-08-19 06:00:00
UTC Time2019-08-19 06:35:12
Flight Rules mvfr MVFR
Wind240° at 12 kt
W.Decomp.*RWY 22: 11.2 kt HW 4.3 kt RCW
Visibility9999 m
Phenomena:Shower Rain
Clouds:Broken 016 Hf
Broken 074 Hf
Expected CloudBase > 800 ft AGL from Temp-Dew spread
Ceiling1,600 ft
Temp15°C (ISA +1)
Dew Point13°C (88% RH)
AAT11.6°C
QNH1016 hPa
Density Alt518 ft
Elevation338 ft
Report Wrong Elevation
Raw Report
METAR LFOH 190600Z AUTO 24012KT 9999 BKN016 BKN074 15/13 Q1016 TEMPO
SHRA BKN014=

Extra information for LFOH:More info

Metar Taf Metar & Taf Last 4 Metars F.Rules Stats Wind Profile Meteogram Temp Stats Airport Information Weather charts Add Link Nearby VenuesMetar ALERT Operation Metar Decoded Social comments